sensor_id;sensor_type;location;lat;lon;timestamp;temperature;humidity
546;DHT22;259;53.304;9.816;2023-01-26T00:01:17;11.90;60.20
546;DHT22;259;53.304;9.816;2023-01-26T00:03:45;11.90;60.20
546;DHT22;259;53.304;9.816;2023-01-26T00:06:14;11.90;60.20
546;DHT22;259;53.304;9.816;2023-01-26T00:08:44;11.90;60.40
546;DHT22;259;53.304;9.816;2023-01-26T00:11:14;11.80;60.20
546;DHT22;259;53.304;9.816;2023-01-26T00:13:42;11.80;60.30
546;DHT22;259;53.304;9.816;2023-01-26T00:16:10;11.80;60.00
546;DHT22;259;53.304;9.816;2023-01-26T00:18:38;11.80;60.20
546;DHT22;259;53.304;9.816;2023-01-26T00:21:05;11.80;60.40
546;DHT22;259;53.304;9.816;2023-01-26T00:23:33;11.70;60.40
546;DHT22;259;53.304;9.816;2023-01-26T00:26:00;11.70;60.40
546;DHT22;259;53.304;9.816;2023-01-26T00:28:27;11.70;60.50
546;DHT22;259;53.304;9.816;2023-01-26T00:30:53;11.60;60.40
546;DHT22;259;53.304;9.816;2023-01-26T00:33:19;11.60;60.50
546;DHT22;259;53.304;9.816;2023-01-26T00:35:53;11.60;60.40
546;DHT22;259;53.304;9.816;2023-01-26T00:38:19;11.60;60.60
546;DHT22;259;53.304;9.816;2023-01-26T00:40:44;11.50;60.70
546;DHT22;259;53.304;9.816;2023-01-26T00:43:10;11.50;60.60
546;DHT22;259;53.304;9.816;2023-01-26T00:45:36;11.50;60.70
546;DHT22;259;53.304;9.816;2023-01-26T00:48:01;11.50;60.80
546;DHT22;259;53.304;9.816;2023-01-26T00:50:27;11.50;60.60
546;DHT22;259;53.304;9.816;2023-01-26T00:52:53;11.50;60.70
546;DHT22;259;53.304;9.816;2023-01-26T00:55:19;11.40;60.50
546;DHT22;259;53.304;9.816;2023-01-26T00:57:44;11.40;60.70
546;DHT22;259;53.304;9.816;2023-01-26T01:00:10;11.40;60.80
546;DHT22;259;53.304;9.816;2023-01-26T01:02:41;11.40;60.70
546;DHT22;259;53.304;9.816;2023-01-26T01:05:08;11.30;60.90
546;DHT22;259;53.304;9.816;2023-01-26T01:07:34;11.30;60.80
546;DHT22;259;53.304;9.816;2023-01-26T01:09:59;11.30;60.80
546;DHT22;259;53.304;9.816;2023-01-26T01:12:26;11.30;61.00
546;DHT22;259;53.304;9.816;2023-01-26T01:14:52;11.30;60.80
546;DHT22;259;53.304;9.816;2023-01-26T01:17:17;11.30;60.80
546;DHT22;259;53.304;9.816;2023-01-26T01:19:43;11.20;60.90
546;DHT22;259;53.304;9.816;2023-01-26T01:22:09;11.20;61.00
546;DHT22;259;53.304;9.816;2023-01-26T01:24:34;11.20;61.20
546;DHT22;259;53.304;9.816;2023-01-26T01:27:01;11.10;60.90
546;DHT22;259;53.304;9.816;2023-01-26T01:29:26;11.10;60.90
546;DHT22;259;53.304;9.816;2023-01-26T01:31:52;11.10;61.10
546;DHT22;259;53.304;9.816;2023-01-26T01:34:18;11.10;60.90
546;DHT22;259;53.304;9.816;2023-01-26T01:36:43;11.10;61.00
546;DHT22;259;53.304;9.816;2023-01-26T01:39:09;11.10;61.00
546;DHT22;259;53.304;9.816;2023-01-26T01:41:35;11.00;61.00
546;DHT22;259;53.304;9.816;2023-01-26T01:44:30;11.00;61.20
546;DHT22;259;53.304;9.816;2023-01-26T01:49:49;11.00;61.00
546;DHT22;259;53.304;9.816;2023-01-26T01:52:27;11.00;61.20
546;DHT22;259;53.304;9.816;2023-01-26T01:55:09;10.90;61.00
546;DHT22;259;53.304;9.816;2023-01-26T01:57:40;10.90;61.30
546;DHT22;259;53.304;9.816;2023-01-26T02:00:11;10.80;61.10
546;DHT22;259;53.304;9.816;2023-01-26T02:02:40;10.90;61.20
546;DHT22;259;53.304;9.816;2023-01-26T02:05:18;10.80;61.00
546;DHT22;259;53.304;9.816;2023-01-26T02:07:49;10.80;61.20
546;DHT22;259;53.304;9.816;2023-01-26T02:10:17;10.80;61.20
546;DHT22;259;53.304;9.816;2023-01-26T02:12:46;10.80;61.30
546;DHT22;259;53.304;9.816;2023-01-26T02:15:12;10.80;61.30
546;DHT22;259;53.304;9.816;2023-01-26T02:17:39;10.70;62.10
546;DHT22;259;53.304;9.816;2023-01-26T02:20:27;10.70;61.30
546;DHT22;259;53.304;9.816;2023-01-26T02:28:21;10.60;61.60
546;DHT22;259;53.304;9.816;2023-01-26T02:30:49;10.60;61.70
546;DHT22;259;53.304;9.816;2023-01-26T02:33:21;10.60;61.70
546;DHT22;259;53.304;9.816;2023-01-26T02:35:51;10.60;61.60
546;DHT22;259;53.304;9.816;2023-01-26T02:38:18;10.60;61.70
546;DHT22;259;53.304;9.816;2023-01-26T02:40:54;10.60;61.60
546;DHT22;259;53.304;9.816;2023-01-26T02:43:23;10.50;61.70
546;DHT22;259;53.304;9.816;2023-01-26T02:45:51;10.50;61.60
546;DHT22;259;53.304;9.816;2023-01-26T02:48:17;10.50;61.70
546;DHT22;259;53.304;9.816;2023-01-26T02:51:01;10.50;61.80
546;DHT22;259;53.304;9.816;2023-01-26T02:53:27;10.50;61.90
546;DHT22;259;53.304;9.816;2023-01-26T02:55:53;10.40;61.70
546;DHT22;259;53.304;9.816;2023-01-26T02:58:18;10.40;61.80
546;DHT22;259;53.304;9.816;2023-01-26T03:00:44;10.40;61.90
546;DHT22;259;53.304;9.816;2023-01-26T03:03:15;10.40;61.80
546;DHT22;259;53.304;9.816;2023-01-26T03:05:43;10.40;61.90
546;DHT22;259;53.304;9.816;2023-01-26T03:08:09;10.40;61.90
546;DHT22;259;53.304;9.816;2023-01-26T03:10:35;10.30;61.70
546;DHT22;259;53.304;9.816;2023-01-26T03:13:02;10.30;61.90
546;DHT22;259;53.304;9.816;2023-01-26T03:15:28;10.30;61.80
546;DHT22;259;53.304;9.816;2023-01-26T03:20:59;10.30;62.00
546;DHT22;259;53.304;9.816;2023-01-26T03:23:48;10.30;62.10
546;DHT22;259;53.304;9.816;2023-01-26T03:26:33;10.20;62.10
546;DHT22;259;53.304;9.816;2023-01-26T03:29:18;10.20;62.20
546;DHT22;259;53.304;9.816;2023-01-26T03:31:44;10.20;62.20
546;DHT22;259;53.304;9.816;2023-01-26T03:34:10;10.20;62.20
546;DHT22;259;53.304;9.816;2023-01-26T03:36:35;10.20;62.30
546;DHT22;259;53.304;9.816;2023-01-26T03:39:03;10.10;62.30
546;DHT22;259;53.304;9.816;2023-01-26T03:41:29;10.10;62.40
546;DHT22;259;53.304;9.816;2023-01-26T03:44:13;10.10;62.40
546;DHT22;259;53.304;9.816;2023-01-26T03:46:57;10.10;62.30
546;DHT22;259;53.304;9.816;2023-01-26T03:49:41;10.10;62.40
546;DHT22;259;53.304;9.816;2023-01-26T03:52:25;10.10;62.50
546;DHT22;259;53.304;9.816;2023-01-26T03:55:09;10.10;62.50
546;DHT22;259;53.304;9.816;2023-01-26T03:57:53;10.00;62.50
546;DHT22;259;53.304;9.816;2023-01-26T04:00:19;10.00;62.60
546;DHT22;259;53.304;9.816;2023-01-26T04:02:46;10.00;62.60
546;DHT22;259;53.304;9.816;2023-01-26T04:05:31;10.00;62.70
546;DHT22;259;53.304;9.816;2023-01-26T04:08:15;10.00;62.80
546;DHT22;259;53.304;9.816;2023-01-26T04:10:54;9.90;63.80
546;DHT22;259;53.304;9.816;2023-01-26T04:13:22;9.90;63.90
546;DHT22;259;53.304;9.816;2023-01-26T04:16:08;9.90;64.00
546;DHT22;259;53.304;9.816;2023-01-26T04:18:53;9.90;64.00
546;DHT22;259;53.304;9.816;2023-01-26T04:21:38;9.90;64.00
546;DHT22;259;53.304;9.816;2023-01-26T04:24:05;9.80;63.80
546;DHT22;259;53.304;9.816;2023-01-26T04:26:35;9.80;63.70
546;DHT22;259;53.304;9.816;2023-01-26T04:29:08;9.80;63.70
546;DHT22;259;53.304;9.816;2023-01-26T04:31:35;9.80;63.80
546;DHT22;259;53.304;9.816;2023-01-26T04:34:02;9.80;64.10
546;DHT22;259;53.304;9.816;2023-01-26T04:36:29;9.80;63.90
546;DHT22;259;53.304;9.816;2023-01-26T04:38:55;9.80;63.90
546;DHT22;259;53.304;9.816;2023-01-26T04:41:21;9.70;64.10
546;DHT22;259;53.304;9.816;2023-01-26T04:43:46;9.70;63.90
546;DHT22;259;53.304;9.816;2023-01-26T04:46:12;9.70;64.00
546;DHT22;259;53.304;9.816;2023-01-26T04:48:38;9.70;64.00
546;DHT22;259;53.304;9.816;2023-01-26T04:51:06;9.70;64.20
546;DHT22;259;53.304;9.816;2023-01-26T04:53:34;9.70;64.00
546;DHT22;259;53.304;9.816;2023-01-26T04:56:00;9.70;64.00
546;DHT22;259;53.304;9.816;2023-01-26T04:58:26;9.60;64.10
546;DHT22;259;53.304;9.816;2023-01-26T05:00:53;9.60;64.10
546;DHT22;259;53.304;9.816;2023-01-26T05:03:21;9.60;63.90
546;DHT22;259;53.304;9.816;2023-01-26T05:05:48;9.60;64.00
546;DHT22;259;53.304;9.816;2023-01-26T05:08:16;9.60;64.10
546;DHT22;259;53.304;9.816;2023-01-26T05:10:42;9.60;64.10
546;DHT22;259;53.304;9.816;2023-01-26T05:13:08;9.60;64.10
546;DHT22;259;53.304;9.816;2023-01-26T05:15:35;9.50;64.10
546;DHT22;259;53.304;9.816;2023-01-26T05:18:01;9.50;64.10
546;DHT22;259;53.304;9.816;2023-01-26T05:20:27;9.50;64.10
546;DHT22;259;53.304;9.816;2023-01-26T05:22:52;9.50;64.10
546;DHT22;259;53.304;9.816;2023-01-26T05:25:18;9.50;64.10
546;DHT22;259;53.304;9.816;2023-01-26T05:27:44;9.50;64.00
546;DHT22;259;53.304;9.816;2023-01-26T05:30:11;9.50;64.00
546;DHT22;259;53.304;9.816;2023-01-26T05:32:36;9.50;64.20
546;DHT22;259;53.304;9.816;2023-01-26T05:35:03;9.50;64.40
546;DHT22;259;53.304;9.816;2023-01-26T05:37:30;9.50;64.10
546;DHT22;259;53.304;9.816;2023-01-26T05:39:55;9.40;64.10
546;DHT22;259;53.304;9.816;2023-01-26T05:42:21;9.40;64.20
546;DHT22;259;53.304;9.816;2023-01-26T05:44:48;9.40;64.20
546;DHT22;259;53.304;9.816;2023-01-26T05:47:14;9.40;64.20
546;DHT22;259;53.304;9.816;2023-01-26T05:49:39;9.40;64.30
546;DHT22;259;53.304;9.816;2023-01-26T05:52:12;9.40;64.40
546;DHT22;259;53.304;9.816;2023-01-26T05:54:40;9.40;64.30
546;DHT22;259;53.304;9.816;2023-01-26T05:57:06;9.40;64.10
546;DHT22;259;53.304;9.816;2023-01-26T05:59:32;9.30;64.20
546;DHT22;259;53.304;9.816;2023-01-26T06:01:58;9.30;64.30
546;DHT22;259;53.304;9.816;2023-01-26T06:04:24;9.30;64.30
546;DHT22;259;53.304;9.816;2023-01-26T06:06:54;9.30;64.40
546;DHT22;259;53.304;9.816;2023-01-26T06:09:21;9.30;64.30
546;DHT22;259;53.304;9.816;2023-01-26T06:11:47;9.30;64.30
546;DHT22;259;53.304;9.816;2023-01-26T06:14:13;9.20;64.40
546;DHT22;259;53.304;9.816;2023-01-26T06:16:39;9.20;64.30
546;DHT22;259;53.304;9.816;2023-01-26T06:19:05;9.20;64.30
546;DHT22;259;53.304;9.816;2023-01-26T06:21:31;9.20;64.30
546;DHT22;259;53.304;9.816;2023-01-26T06:23:58;9.20;64.40
546;DHT22;259;53.304;9.816;2023-01-26T06:26:24;9.20;65.20
546;DHT22;259;53.304;9.816;2023-01-26T06:28:51;9.20;64.40
546;DHT22;259;53.304;9.816;2023-01-26T06:31:18;9.20;64.50
546;DHT22;259;53.304;9.816;2023-01-26T06:33:44;9.10;64.50
546;DHT22;259;53.304;9.816;2023-01-26T06:36:12;9.10;64.50
546;DHT22;259;53.304;9.816;2023-01-26T06:38:43;9.10;64.50
546;DHT22;259;53.304;9.816;2023-01-26T06:41:10;9.10;64.50
546;DHT22;259;53.304;9.816;2023-01-26T06:43:36;9.10;64.60
546;DHT22;259;53.304;9.816;2023-01-26T06:46:03;9.10;64.50
546;DHT22;259;53.304;9.816;2023-01-26T06:48:32;9.10;64.60
546;DHT22;259;53.304;9.816;2023-01-26T06:56:23;9.00;64.60
546;DHT22;259;53.304;9.816;2023-01-26T06:58:49;9.00;64.60
546;DHT22;259;53.304;9.816;2023-01-26T07:01:24;9.00;64.60
546;DHT22;259;53.304;9.816;2023-01-26T07:03:54;9.00;64.80
546;DHT22;259;53.304;9.816;2023-01-26T07:06:20;9.00;64.80
546;DHT22;259;53.304;9.816;2023-01-26T07:08:45;9.00;64.90
546;DHT22;259;53.304;9.816;2023-01-26T07:11:12;8.90;64.80
546;DHT22;259;53.304;9.816;2023-01-26T07:13:38;8.90;64.80
546;DHT22;259;53.304;9.816;2023-01-26T07:16:07;8.90;64.90
546;DHT22;259;53.304;9.816;2023-01-26T07:18:34;8.90;64.90
546;DHT22;259;53.304;9.816;2023-01-26T07:21:02;8.90;65.00
546;DHT22;259;53.304;9.816;2023-01-26T07:23:30;8.90;65.00
546;DHT22;259;53.304;9.816;2023-01-26T07:25:56;8.90;64.90
546;DHT22;259;53.304;9.816;2023-01-26T07:28:21;8.90;64.80
546;DHT22;259;53.304;9.816;2023-01-26T07:30:47;8.90;64.90
546;DHT22;259;53.304;9.816;2023-01-26T07:33:14;8.90;65.00
546;DHT22;259;53.304;9.816;2023-01-26T07:35:40;8.80;64.90
546;DHT22;259;53.304;9.816;2023-01-26T07:38:05;8.80;64.90
546;DHT22;259;53.304;9.816;2023-01-26T07:40:31;8.80;65.00
546;DHT22;259;53.304;9.816;2023-01-26T07:42:58;8.80;65.00
546;DHT22;259;53.304;9.816;2023-01-26T07:45:25;8.80;65.00
546;DHT22;259;53.304;9.816;2023-01-26T07:47:53;8.80;65.80
546;DHT22;259;53.304;9.816;2023-01-26T07:50:19;8.80;65.10
546;DHT22;259;53.304;9.816;2023-01-26T07:52:48;8.80;64.90
546;DHT22;259;53.304;9.816;2023-01-26T07:55:20;8.70;65.00
546;DHT22;259;53.304;9.816;2023-01-26T07:57:49;8.70;65.10
546;DHT22;259;53.304;9.816;2023-01-26T08:00:16;8.70;65.20
546;DHT22;259;53.304;9.816;2023-01-26T08:02:42;8.80;66.00
546;DHT22;259;53.304;9.816;2023-01-26T08:05:08;8.80;65.70
546;DHT22;259;53.304;9.816;2023-01-26T08:07:34;8.90;65.20
546;DHT22;259;53.304;9.816;2023-01-26T08:10:00;9.00;64.80
546;DHT22;259;53.304;9.816;2023-01-26T08:12:25;9.20;64.20
546;DHT22;259;53.304;9.816;2023-01-26T08:14:51;9.50;63.50
546;DHT22;259;53.304;9.816;2023-01-26T08:17:17;9.90;62.60
546;DHT22;259;53.304;9.816;2023-01-26T08:19:44;10.30;60.10
546;DHT22;259;53.304;9.816;2023-01-26T08:22:10;10.90;59.30
546;DHT22;259;53.304;9.816;2023-01-26T08:24:36;11.50;58.30
546;DHT22;259;53.304;9.816;2023-01-26T08:27:02;12.10;57.30
546;DHT22;259;53.304;9.816;2023-01-26T08:29:28;12.80;56.40
546;DHT22;259;53.304;9.816;2023-01-26T08:31:53;13.40;55.60
546;DHT22;259;53.304;9.816;2023-01-26T08:34:19;14.10;54.80
546;DHT22;259;53.304;9.816;2023-01-26T08:36:47;14.80;54.20
546;DHT22;259;53.304;9.816;2023-01-26T08:39:13;15.50;53.50
546;DHT22;259;53.304;9.816;2023-01-26T08:41:39;16.00;52.90
546;DHT22;259;53.304;9.816;2023-01-26T08:44:05;16.50;52.30
546;DHT22;259;53.304;9.816;2023-01-26T08:46:31;16.90;51.90
546;DHT22;259;53.304;9.816;2023-01-26T08:48:57;17.30;51.40
546;DHT22;259;53.304;9.816;2023-01-26T08:51:23;17.70;51.00
546;DHT22;259;53.304;9.816;2023-01-26T08:53:49;18.10;50.80
546;DHT22;259;53.304;9.816;2023-01-26T08:56:14;18.40;50.30
546;DHT22;259;53.304;9.816;2023-01-26T08:58:40;18.70;50.10
546;DHT22;259;53.304;9.816;2023-01-26T09:01:14;18.90;49.90
546;DHT22;259;53.304;9.816;2023-01-26T09:03:40;19.00;49.80
546;DHT22;259;53.304;9.816;2023-01-26T09:06:08;19.20;49.70
546;DHT22;259;53.304;9.816;2023-01-26T09:08:35;19.30;49.50
546;DHT22;259;53.304;9.816;2023-01-26T09:11:01;19.40;49.50
546;DHT22;259;53.304;9.816;2023-01-26T09:13:27;19.50;49.40
546;DHT22;259;53.304;9.816;2023-01-26T09:15:53;19.60;49.40
546;DHT22;259;53.304;9.816;2023-01-26T09:18:18;19.60;49.50
546;DHT22;259;53.304;9.816;2023-01-26T09:20:44;19.60;49.40
546;DHT22;259;53.304;9.816;2023-01-26T09:23:10;19.70;49.40
546;DHT22;259;53.304;9.816;2023-01-26T09:25:38;19.60;49.30
546;DHT22;259;53.304;9.816;2023-01-26T09:28:05;19.50;49.40
546;DHT22;259;53.304;9.816;2023-01-26T09:30:31;19.50;49.50
546;DHT22;259;53.304;9.816;2023-01-26T09:33:02;19.70;49.50
546;DHT22;259;53.304;9.816;2023-01-26T09:35:29;19.80;49.50
546;DHT22;259;53.304;9.816;2023-01-26T09:37:55;20.00;49.40
546;DHT22;259;53.304;9.816;2023-01-26T09:40:29;20.20;49.30
546;DHT22;259;53.304;9.816;2023-01-26T09:43:27;20.50;49.20
546;DHT22;259;53.304;9.816;2023-01-26T09:51:38;21.70;48.50
546;DHT22;259;53.304;9.816;2023-01-26T09:57:19;22.30;48.00
546;DHT22;259;53.304;9.816;2023-01-26T10:00:08;22.60;47.60
546;DHT22;259;53.304;9.816;2023-01-26T10:08:32;23.40;46.90
546;DHT22;259;53.304;9.816;2023-01-26T10:11:17;23.50;46.80
546;DHT22;259;53.304;9.816;2023-01-26T10:13:51;23.70;46.70
546;DHT22;259;53.304;9.816;2023-01-26T10:16:19;23.80;46.50
546;DHT22;259;53.304;9.816;2023-01-26T10:18:57;23.90;46.50
546;DHT22;259;53.304;9.816;2023-01-26T10:21:31;23.90;46.40
546;DHT22;259;53.304;9.816;2023-01-26T10:24:00;23.90;46.40
546;DHT22;259;53.304;9.816;2023-01-26T10:26:30;23.70;46.40
546;DHT22;259;53.304;9.816;2023-01-26T10:28:58;23.70;46.50
546;DHT22;259;53.304;9.816;2023-01-26T10:31:27;23.50;46.50
546;DHT22;259;53.304;9.816;2023-01-26T10:36:23;23.40;46.90
546;DHT22;259;53.304;9.816;2023-01-26T10:38:50;23.30;47.10
546;DHT22;259;53.304;9.816;2023-01-26T10:41:27;23.20;47.30
546;DHT22;259;53.304;9.816;2023-01-26T10:43:59;23.10;47.50
546;DHT22;259;53.304;9.816;2023-01-26T10:49:14;22.90;47.90
546;DHT22;259;53.304;9.816;2023-01-26T10:51:47;22.80;48.10
546;DHT22;259;53.304;9.816;2023-01-26T10:54:33;22.70;48.40
546;DHT22;259;53.304;9.816;2023-01-26T10:57:16;22.50;48.40
546;DHT22;259;53.304;9.816;2023-01-26T10:59:52;22.40;48.70
546;DHT22;259;53.304;9.816;2023-01-26T11:02:24;22.30;48.90
546;DHT22;259;53.304;9.816;2023-01-26T11:10:24;21.80;49.50
546;DHT22;259;53.304;9.816;2023-01-26T11:21:52;21.10;50.40
546;DHT22;259;53.304;9.816;2023-01-26T11:24:41;20.90;50.70
546;DHT22;259;53.304;9.816;2023-01-26T11:36:09;20.10;51.40
546;DHT22;259;53.304;9.816;2023-01-26T11:38:50;20.00;51.70
546;DHT22;259;53.304;9.816;2023-01-26T11:41:50;19.80;51.50
546;DHT22;259;53.304;9.816;2023-01-26T11:45:03;19.70;51.60
546;DHT22;259;53.304;9.816;2023-01-26T11:50:49;19.50;51.80
546;DHT22;259;53.304;9.816;2023-01-26T11:56:41;19.40;52.10
546;DHT22;259;53.304;9.816;2023-01-26T11:59:26;19.40;52.10
546;DHT22;259;53.304;9.816;2023-01-26T12:02:03;19.40;52.20
546;DHT22;259;53.304;9.816;2023-01-26T12:04:45;19.40;52.20
546;DHT22;259;53.304;9.816;2023-01-26T12:07:18;19.40;52.10
546;DHT22;259;53.304;9.816;2023-01-26T12:09:47;19.40;52.00
546;DHT22;259;53.304;9.816;2023-01-26T12:15:24;19.70;51.70
546;DHT22;259;53.304;9.816;2023-01-26T12:20:54;19.80;51.50
546;DHT22;259;53.304;9.816;2023-01-26T12:23:29;19.90;51.80
546;DHT22;259;53.304;9.816;2023-01-26T12:26:13;19.90;51.90
546;DHT22;259;53.304;9.816;2023-01-26T12:31:32;20.20;51.40
546;DHT22;259;53.304;9.816;2023-01-26T12:34:01;20.40;51.20
546;DHT22;259;53.304;9.816;2023-01-26T12:36:55;20.60;51.20
546;DHT22;259;53.304;9.816;2023-01-26T12:39:45;20.80;51.20
546;DHT22;259;53.304;9.816;2023-01-26T12:45:06;21.10;51.00
546;DHT22;259;53.304;9.816;2023-01-26T12:47:38;21.10;51.10
546;DHT22;259;53.304;9.816;2023-01-26T12:50:09;21.10;51.10
546;DHT22;259;53.304;9.816;2023-01-26T12:58:47;21.30;51.30
546;DHT22;259;53.304;9.816;2023-01-26T13:01:16;21.40;51.30
546;DHT22;259;53.304;9.816;2023-01-26T13:04:04;21.30;51.30
546;DHT22;259;53.304;9.816;2023-01-26T13:06:40;21.30;51.60
546;DHT22;259;53.304;9.816;2023-01-26T13:09:22;21.30;51.60
546;DHT22;259;53.304;9.816;2023-01-26T13:11:54;21.20;51.60
546;DHT22;259;53.304;9.816;2023-01-26T13:14:36;21.10;52.30
546;DHT22;259;53.304;9.816;2023-01-26T13:24:45;20.70;52.50
546;DHT22;259;53.304;9.816;2023-01-26T13:27:47;20.60;52.80
546;DHT22;259;53.304;9.816;2023-01-26T13:32:51;20.30;53.30
546;DHT22;259;53.304;9.816;2023-01-26T13:35:21;20.20;53.50
546;DHT22;259;53.304;9.816;2023-01-26T13:38:02;20.00;53.50
546;DHT22;259;53.304;9.816;2023-01-26T13:40:40;20.00;53.90
546;DHT22;259;53.304;9.816;2023-01-26T13:43:26;19.80;53.90
546;DHT22;259;53.304;9.816;2023-01-26T13:46:19;19.70;54.40
546;DHT22;259;53.304;9.816;2023-01-26T13:48:55;19.70;54.30
546;DHT22;259;53.304;9.816;2023-01-26T13:51:30;19.70;54.20
546;DHT22;259;53.304;9.816;2023-01-26T13:56:40;19.90;54.00
546;DHT22;259;53.304;9.816;2023-01-26T13:59:08;20.00;53.60
546;DHT22;259;53.304;9.816;2023-01-26T14:01:46;20.10;53.50
546;DHT22;259;53.304;9.816;2023-01-26T14:07:13;20.50;53.00
546;DHT22;259;53.304;9.816;2023-01-26T14:09:44;20.60;52.80
546;DHT22;259;53.304;9.816;2023-01-26T14:12:20;20.80;52.60
546;DHT22;259;53.304;9.816;2023-01-26T14:14:52;21.10;52.50
546;DHT22;259;53.304;9.816;2023-01-26T14:17:33;21.40;52.40
546;DHT22;259;53.304;9.816;2023-01-26T14:20:24;21.80;52.20
546;DHT22;259;53.304;9.816;2023-01-26T14:25:39;22.60;51.40
546;DHT22;259;53.304;9.816;2023-01-26T14:28:13;23.00;51.00
546;DHT22;259;53.304;9.816;2023-01-26T14:30:40;23.30;50.70
546;DHT22;259;53.304;9.816;2023-01-26T14:33:16;23.70;50.50
546;DHT22;259;53.304;9.816;2023-01-26T14:35:57;24.00;50.10
546;DHT22;259;53.304;9.816;2023-01-26T14:38:26;24.30;49.70
546;DHT22;259;53.304;9.816;2023-01-26T14:40:54;24.60;49.30
546;DHT22;259;53.304;9.816;2023-01-26T14:43:22;24.70;49.20
546;DHT22;259;53.304;9.816;2023-01-26T14:45:56;24.80;49.10
546;DHT22;259;53.304;9.816;2023-01-26T14:48:30;25.00;48.90
546;DHT22;259;53.304;9.816;2023-01-26T14:51:00;25.00;48.80
546;DHT22;259;53.304;9.816;2023-01-26T14:53:28;25.00;48.90
546;DHT22;259;53.304;9.816;2023-01-26T14:55:53;25.00;48.90
546;DHT22;259;53.304;9.816;2023-01-26T14:58:38;24.90;48.90
546;DHT22;259;53.304;9.816;2023-01-26T15:01:03;24.90;49.00
546;DHT22;259;53.304;9.816;2023-01-26T15:03:36;24.90;49.20
546;DHT22;259;53.304;9.816;2023-01-26T15:08:39;24.70;49.40
546;DHT22;259;53.304;9.816;2023-01-26T15:11:05;24.60;49.50
546;DHT22;259;53.304;9.816;2023-01-26T15:13:54;24.50;49.80
546;DHT22;259;53.304;9.816;2023-01-26T15:16:22;24.40;50.00
546;DHT22;259;53.304;9.816;2023-01-26T15:19:04;24.20;50.00
546;DHT22;259;53.304;9.816;2023-01-26T15:21:35;24.10;50.10
546;DHT22;259;53.304;9.816;2023-01-26T15:24:04;24.00;50.40
546;DHT22;259;53.304;9.816;2023-01-26T15:26:34;23.80;50.60
546;DHT22;259;53.304;9.816;2023-01-26T15:29:03;23.60;50.70
546;DHT22;259;53.304;9.816;2023-01-26T15:31:33;23.50;51.00
546;DHT22;259;53.304;9.816;2023-01-26T15:34:01;23.40;51.40
546;DHT22;259;53.304;9.816;2023-01-26T15:36:47;23.30;51.80
546;DHT22;259;53.304;9.816;2023-01-26T15:39:16;23.10;51.90
546;DHT22;259;53.304;9.816;2023-01-26T15:42:12;23.00;51.90
546;DHT22;259;53.304;9.816;2023-01-26T15:44:40;22.80;52.10
546;DHT22;259;53.304;9.816;2023-01-26T15:47:10;22.80;52.30
546;DHT22;259;53.304;9.816;2023-01-26T15:49:37;22.60;52.30
546;DHT22;259;53.304;9.816;2023-01-26T15:52:09;22.50;52.50
546;DHT22;259;53.304;9.816;2023-01-26T15:54:40;22.40;52.70
546;DHT22;259;53.304;9.816;2023-01-26T15:57:07;22.20;52.80
546;DHT22;259;53.304;9.816;2023-01-26T15:59:34;22.10;53.00
546;DHT22;259;53.304;9.816;2023-01-26T16:02:00;22.00;53.30
546;DHT22;259;53.304;9.816;2023-01-26T16:04:26;21.90;53.40
546;DHT22;259;53.304;9.816;2023-01-26T16:06:52;21.70;53.60
546;DHT22;259;53.304;9.816;2023-01-26T16:09:18;21.60;53.80
546;DHT22;259;53.304;9.816;2023-01-26T16:11:50;21.50;54.00
546;DHT22;259;53.304;9.816;2023-01-26T16:14:17;21.40;54.20
546;DHT22;259;53.304;9.816;2023-01-26T16:16:43;21.30;54.40
546;DHT22;259;53.304;9.816;2023-01-26T16:19:09;21.20;54.60
546;DHT22;259;53.304;9.816;2023-01-26T16:21:36;21.10;54.80
546;DHT22;259;53.304;9.816;2023-01-26T16:24:03;20.90;55.50
546;DHT22;259;53.304;9.816;2023-01-26T16:26:30;20.90;54.90
546;DHT22;259;53.304;9.816;2023-01-26T16:28:56;20.70;54.90
546;DHT22;259;53.304;9.816;2023-01-26T16:31:25;20.60;55.20
546;DHT22;259;53.304;9.816;2023-01-26T16:33:53;20.50;55.40
546;DHT22;259;53.304;9.816;2023-01-26T16:36:20;20.40;55.70
546;DHT22;259;53.304;9.816;2023-01-26T16:38:46;20.30;55.70
546;DHT22;259;53.304;9.816;2023-01-26T16:41:30;20.20;55.90
546;DHT22;259;53.304;9.816;2023-01-26T16:43:58;20.10;55.90
546;DHT22;259;53.304;9.816;2023-01-26T16:46:25;20.00;56.00
546;DHT22;259;53.304;9.816;2023-01-26T16:48:51;19.80;56.00
546;DHT22;259;53.304;9.816;2023-01-26T16:51:25;19.70;56.10
546;DHT22;259;53.304;9.816;2023-01-26T16:53:53;19.60;56.10
546;DHT22;259;53.304;9.816;2023-01-26T16:56:20;19.50;56.20
546;DHT22;259;53.304;9.816;2023-01-26T16:58:46;19.40;56.30
546;DHT22;259;53.304;9.816;2023-01-26T17:01:33;19.30;56.40
546;DHT22;259;53.304;9.816;2023-01-26T17:04:01;19.20;56.40
546;DHT22;259;53.304;9.816;2023-01-26T17:06:27;19.10;56.50
546;DHT22;259;53.304;9.816;2023-01-26T17:08:53;19.00;56.50
546;DHT22;259;53.304;9.816;2023-01-26T17:11:25;18.90;56.60
546;DHT22;259;53.304;9.816;2023-01-26T17:13:52;18.80;56.60
546;DHT22;259;53.304;9.816;2023-01-26T17:16:19;18.70;56.70
546;DHT22;259;53.304;9.816;2023-01-26T17:18:49;18.60;56.80
546;DHT22;259;53.304;9.816;2023-01-26T17:21:17;18.50;56.90
546;DHT22;259;53.304;9.816;2023-01-26T17:23:46;18.40;56.90
546;DHT22;259;53.304;9.816;2023-01-26T17:26:14;18.30;57.00
546;DHT22;259;53.304;9.816;2023-01-26T17:28:42;18.20;57.00
546;DHT22;259;53.304;9.816;2023-01-26T17:31:11;18.10;57.10
546;DHT22;259;53.304;9.816;2023-01-26T17:33:38;18.10;57.20
546;DHT22;259;53.304;9.816;2023-01-26T17:36:05;18.00;57.20
546;DHT22;259;53.304;9.816;2023-01-26T17:38:31;17.90;57.30
546;DHT22;259;53.304;9.816;2023-01-26T17:40:58;17.80;57.30
546;DHT22;259;53.304;9.816;2023-01-26T17:43:24;17.70;57.40
546;DHT22;259;53.304;9.816;2023-01-26T17:45:50;17.60;57.50
546;DHT22;259;53.304;9.816;2023-01-26T17:48:16;17.50;57.50
546;DHT22;259;53.304;9.816;2023-01-26T17:50:48;17.50;57.60
546;DHT22;259;53.304;9.816;2023-01-26T17:53:14;17.40;57.60
546;DHT22;259;53.304;9.816;2023-01-26T17:55:39;17.40;58.10
546;DHT22;259;53.304;9.816;2023-01-26T17:58:05;17.30;57.80
546;DHT22;259;53.304;9.816;2023-01-26T18:00:38;17.20;57.80
546;DHT22;259;53.304;9.816;2023-01-26T18:03:04;17.20;57.90
546;DHT22;259;53.304;9.816;2023-01-26T18:05:30;17.10;57.90
546;DHT22;259;53.304;9.816;2023-01-26T18:07:56;17.00;57.90
546;DHT22;259;53.304;9.816;2023-01-26T18:10:22;17.00;58.00
546;DHT22;259;53.304;9.816;2023-01-26T18:12:48;17.00;58.00
546;DHT22;259;53.304;9.816;2023-01-26T18:15:14;16.90;58.00
546;DHT22;259;53.304;9.816;2023-01-26T18:17:40;16.90;58.00
546;DHT22;259;53.304;9.816;2023-01-26T18:20:06;16.80;58.10
546;DHT22;259;53.304;9.816;2023-01-26T18:22:33;16.80;58.10
546;DHT22;259;53.304;9.816;2023-01-26T18:24:58;16.70;58.10
546;DHT22;259;53.304;9.816;2023-01-26T18:27:24;16.70;58.10
546;DHT22;259;53.304;9.816;2023-01-26T18:29:50;16.60;58.10
546;DHT22;259;53.304;9.816;2023-01-26T18:32:15;16.60;58.20
546;DHT22;259;53.304;9.816;2023-01-26T18:34:41;16.50;58.30
546;DHT22;259;53.304;9.816;2023-01-26T18:37:08;16.50;58.30
546;DHT22;259;53.304;9.816;2023-01-26T18:39:36;16.40;58.30
546;DHT22;259;53.304;9.816;2023-01-26T18:42:02;16.40;58.40
546;DHT22;259;53.304;9.816;2023-01-26T18:44:27;16.40;58.40